sensor_id;sensor_type;location;lat;lon;timestamp;temperature;humidity
31575;DHT22;18182;1.328;103.810;2022-08-21T00:00:08;28.20;99.90
31575;DHT22;18182;1.328;103.810;2022-08-21T00:02:35;28.10;99.90
31575;DHT22;18182;1.328;103.810;2022-08-21T00:05:01;28.00;99.90
31575;DHT22;18182;1.328;103.810;2022-08-21T00:07:28;27.90;99.90
31575;DHT22;18182;1.328;103.810;2022-08-21T00:09:54;27.80;99.90
31575;DHT22;18182;1.328;103.810;2022-08-21T00:12:20;27.80;99.90
31575;DHT22;18182;1.328;103.810;2022-08-21T00:14:46;27.90;99.90
31575;DHT22;18182;1.328;103.810;2022-08-21T00:17:13;27.90;99.90
31575;DHT22;18182;1.328;103.810;2022-08-21T00:19:39;27.90;99.90
31575;DHT22;18182;1.328;103.810;2022-08-21T00:22:05;28.00;99.90
31575;DHT22;18182;1.328;103.810;2022-08-21T00:24:31;28.10;99.90
31575;DHT22;18182;1.328;103.810;2022-08-21T00:26:57;28.20;99.90
31575;DHT22;18182;1.328;103.810;2022-08-21T00:29:24;28.20;99.90
31575;DHT22;18182;1.328;103.810;2022-08-21T00:31:50;28.30;99.90
31575;DHT22;18182;1.328;103.810;2022-08-21T00:34:16;28.30;99.90
31575;DHT22;18182;1.328;103.810;2022-08-21T00:36:42;28.40;99.90
31575;DHT22;18182;1.328;103.810;2022-08-21T00:39:08;28.40;99.90
31575;DHT22;18182;1.328;103.810;2022-08-21T00:41:36;28.40;99.90
31575;DHT22;18182;1.328;103.810;2022-08-21T00:44:03;28.50;99.90
31575;DHT22;18182;1.328;103.810;2022-08-21T00:46:29;28.50;99.90
31575;DHT22;18182;1.328;103.810;2022-08-21T00:48:56;28.60;99.90
31575;DHT22;18182;1.328;103.810;2022-08-21T00:51:24;28.60;99.90
31575;DHT22;18182;1.328;103.810;2022-08-21T00:53:54;28.60;99.90
31575;DHT22;18182;1.328;103.810;2022-08-21T00:56:21;28.60;99.90
31575;DHT22;18182;1.328;103.810;2022-08-21T00:58:48;28.70;99.90
31575;DHT22;18182;1.328;103.810;2022-08-21T01:01:15;28.70;99.90
31575;DHT22;18182;1.328;103.810;2022-08-21T01:03:41;28.70;99.90
31575;DHT22;18182;1.328;103.810;2022-08-21T01:06:08;28.70;99.90
31575;DHT22;18182;1.328;103.810;2022-08-21T01:08:34;28.70;99.90
31575;DHT22;18182;1.328;103.810;2022-08-21T01:11:00;28.80;99.90
31575;DHT22;18182;1.328;103.810;2022-08-21T01:13:28;28.80;99.90
31575;DHT22;18182;1.328;103.810;2022-08-21T01:15:56;28.80;99.90
31575;DHT22;18182;1.328;103.810;2022-08-21T01:18:25;28.70;99.90
31575;DHT22;18182;1.328;103.810;2022-08-21T01:23:38;28.80;99.90
31575;DHT22;18182;1.328;103.810;2022-08-21T01:26:06;28.80;99.90
31575;DHT22;18182;1.328;103.810;2022-08-21T01:28:33;28.70;99.90
31575;DHT22;18182;1.328;103.810;2022-08-21T01:31:00;28.70;99.90
31575;DHT22;18182;1.328;103.810;2022-08-21T01:33:27;28.70;99.90
31575;DHT22;18182;1.328;103.810;2022-08-21T01:35:53;28.70;99.90
31575;DHT22;18182;1.328;103.810;2022-08-21T01:38:19;28.70;99.90
31575;DHT22;18182;1.328;103.810;2022-08-21T01:40:46;28.70;99.90
31575;DHT22;18182;1.328;103.810;2022-08-21T01:43:12;28.80;99.90
31575;DHT22;18182;1.328;103.810;2022-08-21T01:45:38;28.70;99.90
31575;DHT22;18182;1.328;103.810;2022-08-21T01:48:04;28.80;99.90
31575;DHT22;18182;1.328;103.810;2022-08-21T01:50:31;28.80;99.90
31575;DHT22;18182;1.328;103.810;2022-08-21T01:52:57;28.70;99.90
31575;DHT22;18182;1.328;103.810;2022-08-21T01:55:23;28.80;99.90
31575;DHT22;18182;1.328;103.810;2022-08-21T01:57:50;28.90;99.90
31575;DHT22;18182;1.328;103.810;2022-08-21T02:00:17;28.90;99.90
31575;DHT22;18182;1.328;103.810;2022-08-21T02:02:44;29.00;99.90
31575;DHT22;18182;1.328;103.810;2022-08-21T02:05:10;29.00;99.90
31575;DHT22;18182;1.328;103.810;2022-08-21T02:07:44;28.90;99.90
31575;DHT22;18182;1.328;103.810;2022-08-21T02:10:11;28.90;99.90
31575;DHT22;18182;1.328;103.810;2022-08-21T02:12:37;28.90;99.90
31575;DHT22;18182;1.328;103.810;2022-08-21T02:15:04;29.00;99.90
31575;DHT22;18182;1.328;103.810;2022-08-21T02:17:38;29.00;99.90
31575;DHT22;18182;1.328;103.810;2022-08-21T02:20:05;29.10;99.90
31575;DHT22;18182;1.328;103.810;2022-08-21T02:22:31;29.10;99.90
31575;DHT22;18182;1.328;103.810;2022-08-21T02:24:57;29.10;99.90
31575;DHT22;18182;1.328;103.810;2022-08-21T02:27:24;29.10;99.90
31575;DHT22;18182;1.328;103.810;2022-08-21T02:29:55;29.10;99.90
31575;DHT22;18182;1.328;103.810;2022-08-21T02:32:21;29.00;99.90
31575;DHT22;18182;1.328;103.810;2022-08-21T02:34:48;29.10;99.90
31575;DHT22;18182;1.328;103.810;2022-08-21T02:37:14;29.00;99.90
31575;DHT22;18182;1.328;103.810;2022-08-21T02:39:40;29.10;99.90
31575;DHT22;18182;1.328;103.810;2022-08-21T02:42:07;29.10;99.90
31575;DHT22;18182;1.328;103.810;2022-08-21T02:44:33;29.10;99.90
31575;DHT22;18182;1.328;103.810;2022-08-21T02:46:59;29.10;99.90
31575;DHT22;18182;1.328;103.810;2022-08-21T02:49:25;29.20;99.90
31575;DHT22;18182;1.328;103.810;2022-08-21T02:51:51;29.10;99.90
31575;DHT22;18182;1.328;103.810;2022-08-21T02:54:18;29.20;99.90
31575;DHT22;18182;1.328;103.810;2022-08-21T02:56:44;29.20;99.90
31575;DHT22;18182;1.328;103.810;2022-08-21T02:59:10;29.30;99.90
31575;DHT22;18182;1.328;103.810;2022-08-21T03:01:37;29.30;99.90
31575;DHT22;18182;1.328;103.810;2022-08-21T03:04:03;29.30;99.90
31575;DHT22;18182;1.328;103.810;2022-08-21T03:06:29;29.30;99.90
31575;DHT22;18182;1.328;103.810;2022-08-21T03:08:55;29.40;99.90
31575;DHT22;18182;1.328;103.810;2022-08-21T03:11:23;29.40;99.90
31575;DHT22;18182;1.328;103.810;2022-08-21T03:13:49;29.40;99.90
31575;DHT22;18182;1.328;103.810;2022-08-21T03:16:15;29.30;99.90
31575;DHT22;18182;1.328;103.810;2022-08-21T03:18:41;29.30;99.90
31575;DHT22;18182;1.328;103.810;2022-08-21T03:21:08;29.40;99.90
31575;DHT22;18182;1.328;103.810;2022-08-21T03:23:34;29.40;99.90
31575;DHT22;18182;1.328;103.810;2022-08-21T03:26:00;29.50;99.90
31575;DHT22;18182;1.328;103.810;2022-08-21T03:28:27;29.50;99.90
31575;DHT22;18182;1.328;103.810;2022-08-21T03:30:53;29.60;99.90
31575;DHT22;18182;1.328;103.810;2022-08-21T03:33:21;29.70;99.90
31575;DHT22;18182;1.328;103.810;2022-08-21T03:35:48;29.80;99.90
31575;DHT22;18182;1.328;103.810;2022-08-21T03:38:17;29.90;99.90
31575;DHT22;18182;1.328;103.810;2022-08-21T03:40:43;29.90;99.90
31575;DHT22;18182;1.328;103.810;2022-08-21T03:43:09;29.90;99.90
31575;DHT22;18182;1.328;103.810;2022-08-21T03:45:36;29.80;99.90
31575;DHT22;18182;1.328;103.810;2022-08-21T03:48:03;29.80;99.90
31575;DHT22;18182;1.328;103.810;2022-08-21T03:50:30;29.80;99.90
31575;DHT22;18182;1.328;103.810;2022-08-21T03:52:57;29.80;99.90
31575;DHT22;18182;1.328;103.810;2022-08-21T03:55:23;29.80;99.90
31575;DHT22;18182;1.328;103.810;2022-08-21T03:57:50;29.80;99.90
31575;DHT22;18182;1.328;103.810;2022-08-21T04:00:17;29.80;99.90
31575;DHT22;18182;1.328;103.810;2022-08-21T04:02:44;29.90;99.90
31575;DHT22;18182;1.328;103.810;2022-08-21T04:05:11;29.90;99.90
31575;DHT22;18182;1.328;103.810;2022-08-21T04:07:37;29.90;99.90
31575;DHT22;18182;1.328;103.810;2022-08-21T04:10:05;29.80;99.90
31575;DHT22;18182;1.328;103.810;2022-08-21T04:12:31;29.80;99.90
31575;DHT22;18182;1.328;103.810;2022-08-21T04:14:57;29.80;99.90
31575;DHT22;18182;1.328;103.810;2022-08-21T04:17:24;29.80;99.90
31575;DHT22;18182;1.328;103.810;2022-08-21T04:19:50;29.80;99.90
31575;DHT22;18182;1.328;103.810;2022-08-21T04:22:16;29.80;99.90
31575;DHT22;18182;1.328;103.810;2022-08-21T04:24:42;29.90;99.90
31575;DHT22;18182;1.328;103.810;2022-08-21T04:27:09;29.90;99.90
31575;DHT22;18182;1.328;103.810;2022-08-21T04:29:35;29.90;99.90
31575;DHT22;18182;1.328;103.810;2022-08-21T04:32:02;29.90;99.90
31575;DHT22;18182;1.328;103.810;2022-08-21T04:34:28;29.80;99.90
31575;DHT22;18182;1.328;103.810;2022-08-21T04:36:54;29.70;99.90
31575;DHT22;18182;1.328;103.810;2022-08-21T04:39:20;29.60;99.90
31575;DHT22;18182;1.328;103.810;2022-08-21T04:41:46;29.60;99.90
31575;DHT22;18182;1.328;103.810;2022-08-21T04:44:12;29.60;99.90
31575;DHT22;18182;1.328;103.810;2022-08-21T04:46:38;29.60;99.90
31575;DHT22;18182;1.328;103.810;2022-08-21T04:49:05;29.60;99.90
31575;DHT22;18182;1.328;103.810;2022-08-21T04:51:32;29.50;99.90
31575;DHT22;18182;1.328;103.810;2022-08-21T04:54:00;29.50;99.90
31575;DHT22;18182;1.328;103.810;2022-08-21T04:58:57;29.40;99.90
31575;DHT22;18182;1.328;103.810;2022-08-21T05:01:26;29.40;99.90
31575;DHT22;18182;1.328;103.810;2022-08-21T05:03:55;29.30;99.90
31575;DHT22;18182;1.328;103.810;2022-08-21T05:06:22;29.30;99.90
31575;DHT22;18182;1.328;103.810;2022-08-21T05:08:50;29.30;99.90
31575;DHT22;18182;1.328;103.810;2022-08-21T05:11:16;29.30;99.90
31575;DHT22;18182;1.328;103.810;2022-08-21T05:13:43;29.30;99.90
31575;DHT22;18182;1.328;103.810;2022-08-21T05:16:09;29.30;99.90
31575;DHT22;18182;1.328;103.810;2022-08-21T05:18:35;29.20;99.90
31575;DHT22;18182;1.328;103.810;2022-08-21T05:21:02;29.20;99.90
31575;DHT22;18182;1.328;103.810;2022-08-21T05:23:28;29.20;99.90
31575;DHT22;18182;1.328;103.810;2022-08-21T05:25:54;29.20;99.90
31575;DHT22;18182;1.328;103.810;2022-08-21T05:28:21;29.20;99.90
31575;DHT22;18182;1.328;103.810;2022-08-21T05:30:47;29.20;99.90
31575;DHT22;18182;1.328;103.810;2022-08-21T05:33:14;29.20;99.90
31575;DHT22;18182;1.328;103.810;2022-08-21T05:35:40;29.30;99.90
31575;DHT22;18182;1.328;103.810;2022-08-21T05:38:06;29.30;99.90
31575;DHT22;18182;1.328;103.810;2022-08-21T05:40:32;29.40;99.90
31575;DHT22;18182;1.328;103.810;2022-08-21T05:42:59;29.50;99.90
31575;DHT22;18182;1.328;103.810;2022-08-21T05:45:26;29.50;99.90
31575;DHT22;18182;1.328;103.810;2022-08-21T05:47:53;29.60;99.90
31575;DHT22;18182;1.328;103.810;2022-08-21T05:50:20;29.70;99.90
31575;DHT22;18182;1.328;103.810;2022-08-21T05:52:46;29.70;99.90
31575;DHT22;18182;1.328;103.810;2022-08-21T05:55:12;29.60;99.90
31575;DHT22;18182;1.328;103.810;2022-08-21T05:57:38;29.60;99.90
31575;DHT22;18182;1.328;103.810;2022-08-21T06:00:07;29.60;99.90
31575;DHT22;18182;1.328;103.810;2022-08-21T06:02:35;29.60;99.90
31575;DHT22;18182;1.328;103.810;2022-08-21T06:05:01;29.70;99.90
31575;DHT22;18182;1.328;103.810;2022-08-21T06:07:27;29.80;99.90
31575;DHT22;18182;1.328;103.810;2022-08-21T06:09:54;29.80;99.90
31575;DHT22;18182;1.328;103.810;2022-08-21T06:12:20;29.80;99.90
31575;DHT22;18182;1.328;103.810;2022-08-21T06:14:46;29.80;99.90
31575;DHT22;18182;1.328;103.810;2022-08-21T06:17:12;29.80;99.90
31575;DHT22;18182;1.328;103.810;2022-08-21T06:19:40;29.80;99.90
31575;DHT22;18182;1.328;103.810;2022-08-21T06:22:06;29.80;99.90
31575;DHT22;18182;1.328;103.810;2022-08-21T06:24:32;29.80;99.90
31575;DHT22;18182;1.328;103.810;2022-08-21T06:27:03;29.90;99.90
31575;DHT22;18182;1.328;103.810;2022-08-21T06:29:29;29.90;99.90
31575;DHT22;18182;1.328;103.810;2022-08-21T06:31:56;29.90;99.90
31575;DHT22;18182;1.328;103.810;2022-08-21T06:34:22;29.90;99.90
31575;DHT22;18182;1.328;103.810;2022-08-21T06:36:48;29.90;99.90
31575;DHT22;18182;1.328;103.810;2022-08-21T06:39:14;29.90;99.90
31575;DHT22;18182;1.328;103.810;2022-08-21T06:41:41;29.90;99.90
31575;DHT22;18182;1.328;103.810;2022-08-21T06:44:07;29.90;99.90
31575;DHT22;18182;1.328;103.810;2022-08-21T06:46:33;29.90;99.90
31575;DHT22;18182;1.328;103.810;2022-08-21T06:48:59;29.80;99.90
31575;DHT22;18182;1.328;103.810;2022-08-21T06:51:25;29.90;99.90
31575;DHT22;18182;1.328;103.810;2022-08-21T06:53:52;29.90;99.90
31575;DHT22;18182;1.328;103.810;2022-08-21T06:56:19;29.90;99.90
31575;DHT22;18182;1.328;103.810;2022-08-21T06:58:45;29.90;99.90
31575;DHT22;18182;1.328;103.810;2022-08-21T07:01:11;29.90;99.90
31575;DHT22;18182;1.328;103.810;2022-08-21T07:03:39;29.90;99.90
31575;DHT22;18182;1.328;103.810;2022-08-21T07:06:05;29.80;99.90
31575;DHT22;18182;1.328;103.810;2022-08-21T07:08:32;29.80;99.90
31575;DHT22;18182;1.328;103.810;2022-08-21T07:10:59;29.80;99.90
31575;DHT22;18182;1.328;103.810;2022-08-21T07:13:26;29.80;99.90
31575;DHT22;18182;1.328;103.810;2022-08-21T07:15:52;29.80;99.90
31575;DHT22;18182;1.328;103.810;2022-08-21T07:18:18;29.80;99.90
31575;DHT22;18182;1.328;103.810;2022-08-21T07:20:45;29.90;99.90
31575;DHT22;18182;1.328;103.810;2022-08-21T07:23:12;29.90;99.90
31575;DHT22;18182;1.328;103.810;2022-08-21T07:25:41;29.90;99.90
31575;DHT22;18182;1.328;103.810;2022-08-21T07:28:07;30.00;99.90
31575;DHT22;18182;1.328;103.810;2022-08-21T07:30:33;29.90;99.90
31575;DHT22;18182;1.328;103.810;2022-08-21T07:33:00;29.90;99.90
31575;DHT22;18182;1.328;103.810;2022-08-21T07:35:26;29.90;99.90
31575;DHT22;18182;1.328;103.810;2022-08-21T07:37:53;29.90;99.90
31575;DHT22;18182;1.328;103.810;2022-08-21T07:40:19;29.90;99.90
31575;DHT22;18182;1.328;103.810;2022-08-21T07:42:47;29.90;99.90
31575;DHT22;18182;1.328;103.810;2022-08-21T07:45:15;29.90;99.90
31575;DHT22;18182;1.328;103.810;2022-08-21T07:47:42;29.90;99.90
31575;DHT22;18182;1.328;103.810;2022-08-21T07:50:09;30.00;99.90
31575;DHT22;18182;1.328;103.810;2022-08-21T07:52:36;30.00;99.90
31575;DHT22;18182;1.328;103.810;2022-08-21T07:55:02;30.00;99.90
31575;DHT22;18182;1.328;103.810;2022-08-21T07:57:29;30.00;99.90
31575;DHT22;18182;1.328;103.810;2022-08-21T07:59:55;30.00;99.90
31575;DHT22;18182;1.328;103.810;2022-08-21T08:02:22;30.10;99.90
31575;DHT22;18182;1.328;103.810;2022-08-21T08:04:48;30.10;99.90
31575;DHT22;18182;1.328;103.810;2022-08-21T08:07:15;30.20;99.90
31575;DHT22;18182;1.328;103.810;2022-08-21T08:09:41;30.20;99.90
31575;DHT22;18182;1.328;103.810;2022-08-21T08:12:07;30.20;99.90
31575;DHT22;18182;1.328;103.810;2022-08-21T08:14:33;30.20;99.90
31575;DHT22;18182;1.328;103.810;2022-08-21T08:17:00;30.20;99.90
31575;DHT22;18182;1.328;103.810;2022-08-21T08:19:26;30.20;99.90
31575;DHT22;18182;1.328;103.810;2022-08-21T08:21:52;30.10;99.90
31575;DHT22;18182;1.328;103.810;2022-08-21T08:24:19;30.10;99.90
31575;DHT22;18182;1.328;103.810;2022-08-21T08:26:45;30.10;99.90
31575;DHT22;18182;1.328;103.810;2022-08-21T08:29:11;30.20;99.90
31575;DHT22;18182;1.328;103.810;2022-08-21T08:31:37;30.20;99.90
31575;DHT22;18182;1.328;103.810;2022-08-21T08:34:04;30.20;99.90
31575;DHT22;18182;1.328;103.810;2022-08-21T08:36:34;30.20;99.90
31575;DHT22;18182;1.328;103.810;2022-08-21T08:39:02;30.20;99.90
31575;DHT22;18182;1.328;103.810;2022-08-21T08:41:28;30.20;99.90
31575;DHT22;18182;1.328;103.810;2022-08-21T08:43:57;30.20;99.90
31575;DHT22;18182;1.328;103.810;2022-08-21T08:49:02;30.10;99.90
31575;DHT22;18182;1.328;103.810;2022-08-21T08:51:49;30.00;99.90
31575;DHT22;18182;1.328;103.810;2022-08-21T08:54:19;29.90;99.90
31575;DHT22;18182;1.328;103.810;2022-08-21T08:56:47;29.90;99.90
31575;DHT22;18182;1.328;103.810;2022-08-21T08:59:16;29.80;99.90
31575;DHT22;18182;1.328;103.810;2022-08-21T09:01:44;29.80;99.90
31575;DHT22;18182;1.328;103.810;2022-08-21T09:04:10;29.80;99.90
31575;DHT22;18182;1.328;103.810;2022-08-21T09:25:28;29.60;99.90
31575;DHT22;18182;1.328;103.810;2022-08-21T09:27:55;29.70;99.90
31575;DHT22;18182;1.328;103.810;2022-08-21T09:30:25;29.60;99.90
31575;DHT22;18182;1.328;103.810;2022-08-21T09:32:52;29.60;99.90
31575;DHT22;18182;1.328;103.810;2022-08-21T09:35:19;29.60;99.90
31575;DHT22;18182;1.328;103.810;2022-08-21T09:37:48;29.70;99.90
31575;DHT22;18182;1.328;103.810;2022-08-21T09:40:17;29.70;99.90
31575;DHT22;18182;1.328;103.810;2022-08-21T09:42:53;29.70;99.90
31575;DHT22;18182;1.328;103.810;2022-08-21T09:45:19;29.80;99.90
31575;DHT22;18182;1.328;103.810;2022-08-21T09:47:45;29.80;99.90
31575;DHT22;18182;1.328;103.810;2022-08-21T09:50:16;29.70;99.90
31575;DHT22;18182;1.328;103.810;2022-08-21T09:52:44;29.70;99.90
31575;DHT22;18182;1.328;103.810;2022-08-21T09:55:15;29.60;99.90
31575;DHT22;18182;1.328;103.810;2022-08-21T09:58:01;29.60;99.90
31575;DHT22;18182;1.328;103.810;2022-08-21T10:00:29;29.50;99.90
31575;DHT22;18182;1.328;103.810;2022-08-21T10:03:12;29.50;99.90
31575;DHT22;18182;1.328;103.810;2022-08-21T10:05:39;29.50;99.90
31575;DHT22;18182;1.328;103.810;2022-08-21T10:08:15;29.50;99.90
31575;DHT22;18182;1.328;103.810;2022-08-21T10:10:41;29.50;99.90
31575;DHT22;18182;1.328;103.810;2022-08-21T10:15:47;29.50;99.90
31575;DHT22;18182;1.328;103.810;2022-08-21T10:28:45;29.40;99.90
31575;DHT22;18182;1.328;103.810;2022-08-21T10:31:18;29.40;99.90
31575;DHT22;18182;1.328;103.810;2022-08-21T10:36:33;29.30;99.90
31575;DHT22;18182;1.328;103.810;2022-08-21T10:39:12;29.20;99.90
31575;DHT22;18182;1.328;103.810;2022-08-21T10:44:37;29.30;99.90
31575;DHT22;18182;1.328;103.810;2022-08-21T10:49:36;29.20;99.90
31575;DHT22;18182;1.328;103.810;2022-08-21T10:57:04;29.10;99.90
31575;DHT22;18182;1.328;103.810;2022-08-21T11:05:16;28.90;99.90
31575;DHT22;18182;1.328;103.810;2022-08-21T11:07:47;28.90;99.90
31575;DHT22;18182;1.328;103.810;2022-08-21T11:12:44;28.90;99.90
31575;DHT22;18182;1.328;103.810;2022-08-21T11:17:50;29.00;99.90
31575;DHT22;18182;1.328;103.810;2022-08-21T11:22:54;29.00;99.90
31575;DHT22;18182;1.328;103.810;2022-08-21T11:25:23;28.90;99.90
31575;DHT22;18182;1.328;103.810;2022-08-21T11:30:56;28.90;99.90
31575;DHT22;18182;1.328;103.810;2022-08-21T11:33:31;28.90;99.90
31575;DHT22;18182;1.328;103.810;2022-08-21T11:36:07;28.90;99.90
31575;DHT22;18182;1.328;103.810;2022-08-21T11:38:40;28.90;99.90
31575;DHT22;18182;1.328;103.810;2022-08-21T11:43:43;28.80;99.90
31575;DHT22;18182;1.328;103.810;2022-08-21T11:51:21;28.80;99.90
31575;DHT22;18182;1.328;103.810;2022-08-21T11:53:50;28.80;99.90
31575;DHT22;18182;1.328;103.810;2022-08-21T11:56:31;28.80;99.90
31575;DHT22;18182;1.328;103.810;2022-08-21T11:59:01;28.80;99.90
31575;DHT22;18182;1.328;103.810;2022-08-21T12:01:30;28.80;99.90
31575;DHT22;18182;1.328;103.810;2022-08-21T12:04:02;28.70;99.90
31575;DHT22;18182;1.328;103.810;2022-08-21T12:06:32;28.70;99.90
31575;DHT22;18182;1.328;103.810;2022-08-21T12:09:00;28.70;99.90
31575;DHT22;18182;1.328;103.810;2022-08-21T12:11:28;28.70;99.90
31575;DHT22;18182;1.328;103.810;2022-08-21T12:16:30;28.70;99.90
31575;DHT22;18182;1.328;103.810;2022-08-21T12:26:50;28.70;99.90
31575;DHT22;18182;1.328;103.810;2022-08-21T12:29:27;28.70;99.90
31575;DHT22;18182;1.328;103.810;2022-08-21T12:31:56;28.80;99.90
31575;DHT22;18182;1.328;103.810;2022-08-21T12:34:25;28.70;99.90
31575;DHT22;18182;1.328;103.810;2022-08-21T12:37:05;28.70;99.90
31575;DHT22;18182;1.328;103.810;2022-08-21T12:39:34;28.80;99.90
31575;DHT22;18182;1.328;103.810;2022-08-21T12:44:48;28.80;99.90
31575;DHT22;18182;1.328;103.810;2022-08-21T12:49:57;28.80;99.90
31575;DHT22;18182;1.328;103.810;2022-08-21T12:52:35;28.70;99.90
31575;DHT22;18182;1.328;103.810;2022-08-21T12:55:02;28.70;99.90
31575;DHT22;18182;1.328;103.810;2022-08-21T12:57:29;28.60;99.90
31575;DHT22;18182;1.328;103.810;2022-08-21T12:59:57;28.70;99.90
31575;DHT22;18182;1.328;103.810;2022-08-21T13:02:25;28.70;99.90
31575;DHT22;18182;1.328;103.810;2022-08-21T13:04:52;28.60;99.90
31575;DHT22;18182;1.328;103.810;2022-08-21T13:07:30;28.60;99.90
31575;DHT22;18182;1.328;103.810;2022-08-21T13:10:00;28.60;99.90
31575;DHT22;18182;1.328;103.810;2022-08-21T13:12:28;28.70;99.90
31575;DHT22;18182;1.328;103.810;2022-08-21T13:14:56;28.80;99.90
31575;DHT22;18182;1.328;103.810;2022-08-21T13:17:23;28.80;99.90
31575;DHT22;18182;1.328;103.810;2022-08-21T13:20:04;28.80;99.90
31575;DHT22;18182;1.328;103.810;2022-08-21T13:22:39;28.90;99.90
31575;DHT22;18182;1.328;103.810;2022-08-21T13:25:09;29.00;99.90
31575;DHT22;18182;1.328;103.810;2022-08-21T13:27:35;29.00;99.90
31575;DHT22;18182;1.328;103.810;2022-08-21T13:32:39;29.00;99.90
31575;DHT22;18182;1.328;103.810;2022-08-21T13:35:10;29.00;99.90
31575;DHT22;18182;1.328;103.810;2022-08-21T13:37:38;29.10;99.90
31575;DHT22;18182;1.328;103.810;2022-08-21T13:40:06;29.10;99.90
31575;DHT22;18182;1.328;103.810;2022-08-21T13:42:32;29.20;99.90
31575;DHT22;18182;1.328;103.810;2022-08-21T13:44:59;29.20;99.90
31575;DHT22;18182;1.328;103.810;2022-08-21T13:47:25;29.20;99.90
31575;DHT22;18182;1.328;103.810;2022-08-21T13:49:52;29.20;99.90
31575;DHT22;18182;1.328;103.810;2022-08-21T13:52:20;29.20;99.90
31575;DHT22;18182;1.328;103.810;2022-08-21T13:54:54;29.20;99.90
31575;DHT22;18182;1.328;103.810;2022-08-21T13:57:25;29.20;99.90
31575;DHT22;18182;1.328;103.810;2022-08-21T13:59:52;29.10;99.90
31575;DHT22;18182;1.328;103.810;2022-08-21T14:02:20;29.20;99.90
31575;DHT22;18182;1.328;103.810;2022-08-21T14:04:55;29.20;99.90
31575;DHT22;18182;1.328;103.810;2022-08-21T14:07:26;29.20;99.90
31575;DHT22;18182;1.328;103.810;2022-08-21T14:09:53;29.20;99.90
31575;DHT22;18182;1.328;103.810;2022-08-21T14:12:27;29.20;99.90
31575;DHT22;18182;1.328;103.810;2022-08-21T14:14:54;29.20;99.90
31575;DHT22;18182;1.328;103.810;2022-08-21T14:17:35;29.20;99.90
31575;DHT22;18182;1.328;103.810;2022-08-21T14:20:03;29.20;99.90
31575;DHT22;18182;1.328;103.810;2022-08-21T14:22:38;29.30;99.90
31575;DHT22;18182;1.328;103.810;2022-08-21T14:27:32;29.20;99.90
31575;DHT22;18182;1.328;103.810;2022-08-21T14:30:00;29.20;99.90
31575;DHT22;18182;1.328;103.810;2022-08-21T14:32:28;29.20;99.90
31575;DHT22;18182;1.328;103.810;2022-08-21T14:34:57;29.10;99.90
31575;DHT22;18182;1.328;103.810;2022-08-21T14:37:23;29.10;99.90
31575;DHT22;18182;1.328;103.810;2022-08-21T14:39:49;29.20;99.90
31575;DHT22;18182;1.328;103.810;2022-08-21T14:42:16;29.10;99.90
31575;DHT22;18182;1.328;103.810;2022-08-21T14:44:42;29.10;99.90
31575;DHT22;18182;1.328;103.810;2022-08-21T14:47:08;29.10;99.90
31575;DHT22;18182;1.328;103.810;2022-08-21T14:49:35;29.10;99.90
31575;DHT22;18182;1.328;103.810;2022-08-21T14:52:01;29.10;99.90
31575;DHT22;18182;1.328;103.810;2022-08-21T14:54:28;29.00;99.90
31575;DHT22;18182;1.328;103.810;2022-08-21T14:56:54;29.00;99.90
31575;DHT22;18182;1.328;103.810;2022-08-21T14:59:20;29.00;99.90
31575;DHT22;18182;1.328;103.810;2022-08-21T15:01:47;29.00;99.90
31575;DHT22;18182;1.328;103.810;2022-08-21T15:04:14;29.00;99.90
31575;DHT22;18182;1.328;103.810;2022-08-21T15:06:41;29.10;99.90
31575;DHT22;18182;1.328;103.810;2022-08-21T15:09:07;29.10;99.90
31575;DHT22;18182;1.328;103.810;2022-08-21T15:11:33;29.10;99.90
31575;DHT22;18182;1.328;103.810;2022-08-21T15:14:01;29.00;99.90
31575;DHT22;18182;1.328;103.810;2022-08-21T15:16:28;29.00;99.90
31575;DHT22;18182;1.328;103.810;2022-08-21T15:18:57;29.00;99.90
31575;DHT22;18182;1.328;103.810;2022-08-21T15:21:23;29.00;99.90
31575;DHT22;18182;1.328;103.810;2022-08-21T15:23:49;29.00;99.90
31575;DHT22;18182;1.328;103.810;2022-08-21T15:26:15;29.00;99.90
31575;DHT22;18182;1.328;103.810;2022-08-21T15:28:41;29.00;99.90
31575;DHT22;18182;1.328;103.810;2022-08-21T15:31:08;28.90;99.90
31575;DHT22;18182;1.328;103.810;2022-08-21T15:33:34;28.90;99.90
31575;DHT22;18182;1.328;103.810;2022-08-21T15:36:00;28.90;99.90
31575;DHT22;18182;1.328;103.810;2022-08-21T15:38:27;28.80;99.90
31575;DHT22;18182;1.328;103.810;2022-08-21T15:40:53;28.80;99.90
31575;DHT22;18182;1.328;103.810;2022-08-21T15:43:21;28.80;99.90
31575;DHT22;18182;1.328;103.810;2022-08-21T15:45:48;28.70;99.90
31575;DHT22;18182;1.328;103.810;2022-08-21T15:48:14;28.70;99.90
31575;DHT22;18182;1.328;103.810;2022-08-21T15:50:40;28.70;99.90
31575;DHT22;18182;1.328;103.810;2022-08-21T15:53:07;28.60;99.90
31575;DHT22;18182;1.328;103.810;2022-08-21T15:55:33;28.60;99.90
31575;DHT22;18182;1.328;103.810;2022-08-21T15:57:59;28.70;99.90
31575;DHT22;18182;1.328;103.810;2022-08-21T16:00:26;28.70;99.90
31575;DHT22;18182;1.328;103.810;2022-08-21T16:02:54;28.60;99.90
31575;DHT22;18182;1.328;103.810;2022-08-21T16:05:21;28.60;99.90
31575;DHT22;18182;1.328;103.810;2022-08-21T16:07:48;28.60;99.90
31575;DHT22;18182;1.328;103.810;2022-08-21T16:10:15;28.60;99.90
31575;DHT22;18182;1.328;103.810;2022-08-21T16:12:43;28.70;99.90
31575;DHT22;18182;1.328;103.810;2022-08-21T16:15:11;28.70;99.90
31575;DHT22;18182;1.328;103.810;2022-08-21T16:17:38;28.70;99.90
31575;DHT22;18182;1.328;103.810;2022-08-21T16:20:07;28.70;99.90
31575;DHT22;18182;1.328;103.810;2022-08-21T16:22:33;28.70;99.90
31575;DHT22;18182;1.328;103.810;2022-08-21T16:25:00;28.70;99.90
31575;DHT22;18182;1.328;103.810;2022-08-21T16:27:26;28.70;99.90
31575;DHT22;18182;1.328;103.810;2022-08-21T16:29:52;28.60;99.90
31575;DHT22;18182;1.328;103.810;2022-08-21T16:32:18;28.60;99.90
31575;DHT22;18182;1.328;103.810;2022-08-21T16:34:45;28.70;99.90
31575;DHT22;18182;1.328;103.810;2022-08-21T16:37:12;28.70;99.90
31575;DHT22;18182;1.328;103.810;2022-08-21T16:39:39;28.70;99.90
31575;DHT22;18182;1.328;103.810;2022-08-21T16:42:05;28.60;99.90
31575;DHT22;18182;1.328;103.810;2022-08-21T16:44:32;28.60;99.90
31575;DHT22;18182;1.328;103.810;2022-08-21T16:47:01;28.60;99.90
31575;DHT22;18182;1.328;103.810;2022-08-21T16:49:28;28.60;99.90
31575;DHT22;18182;1.328;103.810;2022-08-21T16:51:55;28.60;99.90
31575;DHT22;18182;1.328;103.810;2022-08-21T16:54:22;28.60;99.90